»·PEaware :: N198ME KSNA-KCRQ

N198ME :: KSNA-KCRQ

FLIGHT INFORMATION

Flight Status: Arrived
Operator: Privately registered:
United States
More flights under this callsign
Pilot: Juan S. (26712)
Aircraft: CESSNA 172 SKYHAWK
(C172)
More flights by this aircraft type
Origin: KSNA John Wayne-Orange Co
United States
Destination: KCRQ McClellan-Palomar
United States
More flights between these airports :: More routes between these airports
Route: V23 OCN
File this flight plan on PilotEdge
Remarks: I2 Rating
Altitude:
(Current/Filed)
5,000ft
Speed:
(Current/Filed)
110kts
Departed: 30-Nov-19 02:00 PM
Arrived: 30-Nov-19 02:38 PM
Distance/Time
Traveled:
44nm/0:37
Distance/Time
To Go:
Arrived

Flight Plot

Page will automatically refresh every two minutes.


Map Options




Map Legend


Flown Route
Filed Route
Departure Airport
Arrival Airport
Navaid (VOR, NDB)
Fix

Horizontal Profiles

Position Reports

Time Latitude Longitude Heading Altitude Ground
Speed
30-Nov-19 13:45 33.674107 -117.865557 117 60ft 0kts
30-Nov-19 13:46 33.674107 -117.865557 117 60ft 0kts
30-Nov-19 13:46 33.674107 -117.865557 117 60ft 0kts
30-Nov-19 13:48 33.674107 -117.865557 117 60ft 0kts
30-Nov-19 13:48 33.674107 -117.865557 117 60ft 0kts
30-Nov-19 13:49 33.674107 -117.865557 117 60ft 0kts
30-Nov-19 13:51 33.674107 -117.865557 117 60ft 0kts
30-Nov-19 13:51 33.674107 -117.865557 117 60ft 0kts
30-Nov-19 13:52 33.674107 -117.865557 117 60ft 0kts
30-Nov-19 13:53 33.674107 -117.865557 117 60ft 0kts
30-Nov-19 13:54 33.674107 -117.865557 117 60ft 0kts
30-Nov-19 13:55 33.674083 -117.865507 122 60ft 2kts
30-Nov-19 13:56 33.674059 -117.867115 33 60ft 14kts
30-Nov-19 13:57 33.679711 -117.863607 13 60ft 13kts
30-Nov-19 13:58 33.680009 -117.863675 311 60ft 0kts
30-Nov-19 13:59 33.676444 -117.866496 207 77ft 77kts
30-Nov-19 14:00 33.654758 -117.873716 188 1133ft 85kts
30-Nov-19 14:01 33.631823 -117.877947 189 2185ft 84kts
30-Nov-19 14:02 33.608454 -117.882106 186 3142ft 86kts
30-Nov-19 14:03 33.584462 -117.886361 188 4093ft 88kts
30-Nov-19 14:04 33.559343 -117.891801 190 4907ft 101kts
30-Nov-19 14:05 33.528697 -117.897638 187 4931ft 117kts
30-Nov-19 14:06 33.502158 -117.880305 110 4784ft 118kts
30-Nov-19 14:07 33.489910 -117.845073 110 4940ft 118kts
30-Nov-19 14:08 33.477418 -117.807639 111 4888ft 122kts
30-Nov-19 14:09 33.463678 -117.770548 111 4847ft 121kts
30-Nov-19 14:10 33.450663 -117.733728 113 4850ft 119kts
30-Nov-19 14:11 33.437226 -117.697314 113 4840ft 119kts
30-Nov-19 14:12 33.424619 -117.660447 112 4812ft 120kts
30-Nov-19 14:13 33.411753 -117.623568 112 4910ft 118kts
30-Nov-19 14:14 33.392829 -117.591301 135 4935ft 119kts
30-Nov-19 14:15 33.367852 -117.564958 140 4882ft 120kts
30-Nov-19 14:16 33.344012 -117.537279 136 4847ft 120kts
30-Nov-19 14:17 33.321715 -117.508747 133 4813ft 119kts
30-Nov-19 14:18 33.296876 -117.482237 136 4782ft 119kts
30-Nov-19 14:19 33.279797 -117.450364 82 4801ft 117kts
30-Nov-19 14:20 33.285345 -117.411825 80 4832ft 117kts
30-Nov-19 14:21 33.290418 -117.373300 80 4845ft 117kts
30-Nov-19 14:22 33.293951 -117.334577 97 4758ft 117kts
30-Nov-19 14:23 33.284094 -117.297763 110 4273ft 114kts
30-Nov-19 14:24 33.272937 -117.261278 109 3824ft 116kts
30-Nov-19 14:25 33.262441 -117.225235 108 3824ft 111kts
30-Nov-19 14:26 33.250943 -117.190259 113 3847ft 113kts
30-Nov-19 14:27 33.238491 -117.155825 113 3882ft 113kts
30-Nov-19 14:28 33.225718 -117.121506 116 3793ft 114kts
30-Nov-19 14:29 33.213012 -117.087231 113 3793ft 113kts
30-Nov-19 14:30 33.186351 -117.083646 206 3824ft 112kts
30-Nov-19 14:31 33.160248 -117.102640 227 3690ft 110kts
30-Nov-19 14:32 33.150692 -117.137167 265 2817ft 103kts
30-Nov-19 14:33 33.146616 -117.169801 248 2180ft 93kts
30-Nov-19 14:34 33.141011 -117.198732 265 1658ft 90kts
30-Nov-19 14:35 33.136883 -117.227796 256 1177ft 90kts
30-Nov-19 14:36 33.131795 -117.256812 254 676ft 90kts
30-Nov-19 14:37 33.128665 -117.277514 257 335ft 26kts
30-Nov-19 14:38 33.126988 -117.280136 172 335ft 6kts

Navigation Log

Ident Type
Flight plan parsing failed, navigation log unavailable